createdAt,value
2022-10-03T00:00:17.769Z,12.15
2022-10-03T00:03:37.175Z,14.90
2022-10-03T00:06:56.864Z,15.65
2022-10-03T00:09:52.013Z,14.98
2022-10-03T00:12:59.851Z,17.05
2022-10-03T00:16:10.786Z,17.90
2022-10-03T00:19:23.365Z,18.13
2022-10-03T00:22:36.121Z,18.33
2022-10-03T00:25:47.510Z,15.73
2022-10-03T00:28:41.535Z,15.05
2022-10-03T00:31:49.078Z,16.13
2022-10-03T00:34:52.947Z,14.30
2022-10-03T00:37:51.334Z,14.68
2022-10-03T00:40:52.899Z,16.35
2022-10-03T00:44:06.541Z,16.45
2022-10-03T00:47:41.137Z,13.20
2022-10-03T00:51:16.820Z,12.63
2022-10-03T00:54:16.244Z,10.07
2022-10-03T00:57:19.650Z,10.40
2022-10-03T01:00:25.952Z,10.30
2022-10-03T01:03:30.847Z,9.85
2022-10-03T01:06:34.599Z,10.55
2022-10-03T01:09:34.522Z,11.25
2022-10-03T01:12:33.602Z,11.98
2022-10-03T01:15:43.552Z,10.77
2022-10-03T01:18:59.856Z,11.48
2022-10-03T01:22:30.557Z,12.80
2022-10-03T01:25:29.457Z,14.90
2022-10-03T01:28:59.220Z,15.60
2022-10-03T01:32:13.820Z,17.13
2022-10-03T01:35:25.278Z,17.30
2022-10-03T01:38:32.700Z,18.25
2022-10-03T01:41:49.265Z,14.55
2022-10-03T01:44:59.075Z,15.43
2022-10-03T01:48:16.993Z,16.55
2022-10-03T01:51:17.767Z,13.40
2022-10-03T01:54:30.883Z,13.95
2022-10-03T01:57:29.233Z,16.02
2022-10-03T02:00:23.287Z,13.48
2022-10-03T02:03:23.646Z,12.60
2022-10-03T02:06:22.649Z,11.63
2022-10-03T02:09:37.399Z,10.63
2022-10-03T02:12:36.208Z,11.65
2022-10-03T02:15:49.629Z,11.73
2022-10-03T02:19:02.242Z,10.73
2022-10-03T02:21:56.780Z,11.32
2022-10-03T02:25:16.503Z,9.48
2022-10-03T02:28:24.229Z,11.10
2022-10-03T02:31:22.885Z,10.52
2022-10-03T02:34:57.554Z,9.20
2022-10-03T02:38:24.633Z,10.48
2022-10-03T02:41:42.940Z,9.63
2022-10-03T02:45:09.548Z,9.82
2022-10-03T02:48:33.041Z,15.73
2022-10-03T02:51:50.982Z,10.55
2022-10-03T02:55:29.788Z,9.55
2022-10-03T02:58:28.567Z,9.95
2022-10-03T03:01:37.200Z,10.23
2022-10-03T03:05:03.811Z,10.43
2022-10-03T03:08:26.790Z,10.32
2022-10-03T03:11:29.474Z,9.88
2022-10-03T03:14:54.065Z,8.93
2022-10-03T03:18:05.256Z,9.52
2022-10-03T03:21:07.753Z,9.27
2022-10-03T03:24:01.216Z,9.35
2022-10-03T03:27:21.154Z,9.25
2022-10-03T03:30:26.340Z,9.40
2022-10-03T03:33:45.281Z,9.45
2022-10-03T03:36:39.260Z,14.38
2022-10-03T03:39:35.341Z,11.70
2022-10-03T03:42:58.826Z,12.75
2022-10-03T03:46:04.568Z,14.40
2022-10-03T03:49:20.171Z,15.60
2022-10-03T03:52:15.805Z,13.48
2022-10-03T03:55:25.224Z,14.00
2022-10-03T03:58:15.014Z,15.15
2022-10-03T04:01:14.226Z,15.60
2022-10-03T04:04:25.911Z,15.80
2022-10-03T04:07:41.084Z,15.70
2022-10-03T04:11:05.366Z,16.02
2022-10-03T04:14:12.158Z,16.83
2022-10-03T04:17:38.744Z,17.48
2022-10-03T04:21:12.087Z,17.25
2022-10-03T04:24:31.284Z,17.90
2022-10-03T04:27:42.082Z,18.15
2022-10-03T04:31:07.180Z,18.20
2022-10-03T04:34:16.094Z,17.52
2022-10-03T04:37:33.708Z,17.60
2022-10-03T04:40:42.907Z,18.42
2022-10-03T04:43:35.749Z,18.65
2022-10-03T04:46:48.146Z,18.52
2022-10-03T04:50:18.232Z,18.80
2022-10-03T04:53:19.895Z,19.50
2022-10-03T04:56:37.079Z,20.42
2022-10-03T04:59:44.237Z,20.77
2022-10-03T05:03:05.937Z,19.38
2022-10-03T05:06:33.577Z,20.52
2022-10-03T05:09:33.648Z,19.75
2022-10-03T05:13:00.476Z,21.40
2022-10-03T05:16:05.970Z,21.25
2022-10-03T05:19:29.657Z,20.45
2022-10-03T05:22:24.904Z,19.83
2022-10-03T05:25:30.032Z,21.45
2022-10-03T05:28:51.397Z,19.20
2022-10-03T05:31:59.387Z,20.20
2022-10-03T05:35:00.651Z,18.42
2022-10-03T05:38:05.195Z,18.60
2022-10-03T05:41:07.093Z,18.02
2022-10-03T05:44:12.861Z,18.75
2022-10-03T05:47:41.928Z,18.20
2022-10-03T05:50:39.183Z,24.23
2022-10-03T05:53:52.453Z,19.00
2022-10-03T05:56:46.642Z,18.83
2022-10-03T06:00:16.158Z,16.95
2022-10-03T06:03:42.755Z,16.58
2022-10-03T06:06:48.560Z,16.23
2022-10-03T06:10:06.105Z,15.98
2022-10-03T06:13:14.002Z,15.63
2022-10-03T06:16:23.862Z,14.00
2022-10-03T06:19:29.864Z,14.98
2022-10-03T06:22:37.918Z,16.15
2022-10-03T06:26:03.056Z,14.55
2022-10-03T06:29:20.479Z,14.23
2022-10-03T06:32:25.353Z,13.10
2022-10-03T06:35:36.342Z,12.13
2022-10-03T06:39:03.143Z,12.98
2022-10-03T06:42:32.395Z,11.45
2022-10-03T06:46:08.594Z,10.90
2022-10-03T06:49:13.398Z,9.07
2022-10-03T06:52:28.299Z,9.60
2022-10-03T06:55:27.254Z,9.50
2022-10-03T06:58:53.386Z,9.65
2022-10-03T07:02:14.925Z,9.30
2022-10-03T07:05:23.121Z,8.98
2022-10-03T07:08:15.525Z,8.90
2022-10-03T07:11:24.071Z,8.27
2022-10-03T07:14:39.162Z,7.85
2022-10-03T07:17:41.044Z,7.45
2022-10-03T07:20:57.862Z,7.72
2022-10-03T07:23:56.933Z,7.80
2022-10-03T07:27:13.396Z,7.80
2022-10-03T07:30:11.902Z,7.03
2022-10-03T07:33:38.790Z,5.05
2022-10-03T07:36:51.175Z,5.32
2022-10-03T07:39:58.684Z,4.53
2022-10-03T07:43:33.241Z,3.88
2022-10-03T07:46:49.484Z,4.60
2022-10-03T07:50:05.243Z,4.30
2022-10-03T07:53:09.228Z,4.88
2022-10-03T07:56:23.489Z,4.75
2022-10-03T07:59:39.255Z,6.30
2022-10-03T08:02:40.504Z,6.43
2022-10-03T08:05:40.708Z,7.38
2022-10-03T08:08:36.770Z,7.90
2022-10-03T08:12:06.575Z,7.65
2022-10-03T08:15:06.183Z,7.50
2022-10-03T08:18:15.218Z,7.57
2022-10-03T08:21:39.747Z,7.20
2022-10-03T08:24:52.479Z,7.15
2022-10-03T08:28:06.957Z,6.55
2022-10-03T08:31:27.865Z,6.57
2022-10-03T08:34:44.997Z,7.30
2022-10-03T08:38:18.509Z,7.57
2022-10-03T08:41:42.632Z,9.50
2022-10-03T08:44:55.197Z,8.88
2022-10-03T08:48:06.198Z,8.75
2022-10-03T08:51:10.057Z,9.32
2022-10-03T08:54:11.977Z,9.38
2022-10-03T08:57:24.611Z,9.55
2022-10-03T09:00:24.442Z,8.23
2022-10-03T09:03:51.584Z,10.00
2022-10-03T09:07:16.054Z,10.02
2022-10-03T09:10:41.919Z,11.73
2022-10-03T09:13:37.291Z,41.28
2022-10-03T09:16:50.543Z,11.70
2022-10-03T09:20:09.766Z,9.68
2022-10-03T09:23:36.794Z,10.18
2022-10-03T09:26:58.374Z,9.23
2022-10-03T09:29:58.081Z,10.98
2022-10-03T09:32:53.650Z,9.55
2022-10-03T09:36:05.695Z,11.30
2022-10-03T09:39:02.928Z,13.77
2022-10-03T09:42:23.998Z,14.18
2022-10-03T09:45:58.332Z,12.25
2022-10-03T09:48:59.611Z,12.45
2022-10-03T09:51:58.938Z,21.58
2022-10-03T09:55:09.752Z,15.40
2022-10-03T09:58:12.738Z,29.90
2022-10-03T10:01:36.955Z,28.25
2022-10-03T10:04:54.975Z,24.65
2022-10-03T10:08:38.376Z,17.73
2022-10-03T10:11:37.427Z,13.88
2022-10-03T10:15:11.343Z,14.27
2022-10-03T10:18:22.727Z,14.38
2022-10-03T10:21:36.330Z,14.27
2022-10-03T10:24:31.684Z,13.50
2022-10-03T10:27:58.171Z,14.48
2022-10-03T10:31:18.134Z,13.68
2022-10-03T10:34:49.072Z,14.10
2022-10-03T10:38:04.382Z,15.38
2022-10-03T10:41:19.114Z,19.63
2022-10-03T10:44:45.284Z,18.83
2022-10-03T10:47:50.899Z,16.73
2022-10-03T10:51:15.099Z,17.17
2022-10-03T10:54:15.061Z,19.08
2022-10-03T10:57:25.883Z,17.48
2022-10-03T11:00:49.700Z,16.70
2022-10-03T11:04:01.287Z,18.17
2022-10-03T11:07:26.575Z,21.00
2022-10-03T11:10:39.167Z,35.83
2022-10-03T11:13:54.266Z,25.33
2022-10-03T11:17:13.114Z,20.77
2022-10-03T11:20:30.058Z,23.83
2022-10-03T11:23:46.799Z,17.00
2022-10-03T11:26:54.764Z,15.85
2022-10-03T11:30:11.448Z,19.15
2022-10-03T11:33:02.939Z,20.50
2022-10-03T11:36:25.314Z,19.83
2022-10-03T11:39:33.113Z,17.98
2022-10-03T11:42:29.539Z,19.55
2022-10-03T11:45:36.330Z,18.65
2022-10-03T11:48:55.129Z,16.92
2022-10-03T11:52:14.895Z,15.65
2022-10-03T11:55:32.327Z,18.73
2022-10-03T11:58:57.321Z,16.67
2022-10-03T12:02:26.370Z,17.70
2022-10-03T12:05:35.510Z,15.95
2022-10-03T12:08:50.797Z,21.33
2022-10-03T12:11:48.394Z,33.10
2022-10-03T12:14:47.707Z,24.40
2022-10-03T12:17:39.903Z,22.50
2022-10-03T12:21:02.049Z,22.23
2022-10-03T12:24:21.491Z,22.83
2022-10-03T12:27:59.728Z,23.02
2022-10-03T12:31:14.920Z,24.55
2022-10-03T12:34:26.229Z,23.60
2022-10-03T12:37:36.682Z,22.17
2022-10-03T12:40:37.217Z,23.08
2022-10-03T12:43:49.305Z,22.10
2022-10-03T12:46:41.159Z,23.30
2022-10-03T12:49:39.887Z,22.63
2022-10-03T12:52:39.337Z,27.83
2022-10-03T12:55:35.360Z,28.95
2022-10-03T12:58:55.344Z,25.98
2022-10-03T13:02:03.431Z,21.10
2022-10-03T13:04:56.362Z,21.58
2022-10-03T13:07:57.767Z,23.45
2022-10-03T13:10:51.173Z,26.25
2022-10-03T13:13:59.022Z,25.85
2022-10-03T13:17:18.775Z,32.92
2022-10-03T13:20:13.473Z,29.10
2022-10-03T13:23:25.353Z,26.60
2022-10-03T13:26:52.648Z,25.15
2022-10-03T13:29:46.326Z,22.70
2022-10-03T13:32:36.239Z,19.42
2022-10-03T13:36:00.571Z,18.92
2022-10-03T13:39:27.026Z,19.08
2022-10-03T13:42:55.426Z,19.23
2022-10-03T13:45:49.810Z,18.70
2022-10-03T13:48:46.432Z,19.30
2022-10-03T13:51:54.684Z,18.40
2022-10-03T13:55:03.464Z,18.20
2022-10-03T13:58:02.230Z,19.13
2022-10-03T14:01:16.257Z,19.13
2022-10-03T14:04:39.755Z,17.63
2022-10-03T14:07:41.393Z,17.98
2022-10-03T14:11:00.231Z,16.15
2022-10-03T14:14:06.483Z,15.80
2022-10-03T14:17:07.916Z,14.88
2022-10-03T14:20:11.466Z,15.05
2022-10-03T14:23:22.908Z,15.40
2022-10-03T14:26:22.503Z,14.05
2022-10-03T14:29:42.100Z,13.32
2022-10-03T14:32:53.362Z,12.15
2022-10-03T14:36:26.285Z,10.05
2022-10-03T14:39:23.288Z,10.23
2022-10-03T14:42:32.062Z,7.20
2022-10-03T14:45:31.289Z,6.70
2022-10-03T14:48:51.220Z,7.85
2022-10-03T14:51:50.073Z,7.53
2022-10-03T14:54:43.815Z,8.05
2022-10-03T14:58:12.629Z,8.23
2022-10-03T15:01:20.229Z,7.50
2022-10-03T15:04:17.594Z,7.40
2022-10-03T15:07:09.049Z,6.22
2022-10-03T15:09:59.641Z,6.47
2022-10-03T15:12:55.017Z,6.00
2022-10-03T15:15:45.537Z,8.63
2022-10-03T15:18:35.541Z,8.20
2022-10-03T15:21:27.018Z,6.38
2022-10-03T15:24:31.248Z,6.25
2022-10-03T15:27:23.259Z,8.50
2022-10-03T15:30:48.874Z,10.63
2022-10-03T15:33:40.476Z,14.43
2022-10-03T15:36:38.484Z,9.85
2022-10-03T15:39:41.351Z,7.80
2022-10-03T15:42:34.016Z,8.43
2022-10-03T15:45:29.850Z,7.38
2022-10-03T15:48:23.579Z,6.68
2022-10-03T15:51:20.672Z,7.13
2022-10-03T15:54:16.323Z,6.82
2022-10-03T15:57:09.301Z,7.40
2022-10-03T16:00:03.267Z,6.70
2022-10-03T16:03:15.165Z,7.15
2022-10-03T16:06:17.307Z,6.60
2022-10-03T16:09:08.819Z,6.93
2022-10-03T16:12:39.237Z,6.80
2022-10-03T16:15:47.656Z,6.70
2022-10-03T16:18:49.742Z,7.30
2022-10-03T16:21:57.364Z,6.43
2022-10-03T16:25:14.181Z,6.63
2022-10-03T16:28:09.938Z,7.38
2022-10-03T16:31:28.284Z,6.40
2022-10-03T16:34:19.267Z,7.20
2022-10-03T16:37:19.275Z,7.30
2022-10-03T16:40:15.800Z,7.45
2022-10-03T16:43:10.555Z,9.73
2022-10-03T16:46:03.450Z,9.80
2022-10-03T16:49:14.638Z,11.15
2022-10-03T16:52:10.826Z,12.95
2022-10-03T16:55:05.653Z,13.07
2022-10-03T16:58:27.033Z,13.65
2022-10-03T17:01:32.869Z,14.15
2022-10-03T17:04:33.735Z,14.45
2022-10-03T17:07:26.239Z,14.43
2022-10-03T17:10:39.724Z,14.60
2022-10-03T17:13:44.259Z,14.32
2022-10-03T17:16:48.394Z,14.13
2022-10-03T17:19:47.887Z,14.73
2022-10-03T17:22:45.607Z,13.48
2022-10-03T17:25:52.956Z,13.27
2022-10-03T17:28:45.620Z,13.98
2022-10-03T17:31:43.615Z,13.25
2022-10-03T17:34:42.723Z,12.77
2022-10-03T17:38:30.503Z,13.45
2022-10-03T17:41:40.504Z,13.38
2022-10-03T17:47:56.480Z,13.95
2022-10-03T17:50:59.367Z,14.35
2022-10-03T17:53:56.736Z,13.52
2022-10-03T17:56:55.591Z,11.60
2022-10-03T18:00:09.037Z,12.75
2022-10-03T18:03:27.224Z,13.80
2022-10-03T18:06:23.707Z,14.40
2022-10-03T18:09:27.659Z,14.35
2022-10-03T18:12:30.130Z,13.77
2022-10-03T18:15:44.112Z,13.35
2022-10-03T18:18:55.022Z,13.25
2022-10-03T18:21:56.372Z,13.85
2022-10-03T18:24:53.114Z,14.10
2022-10-03T18:28:00.356Z,14.50
2022-10-03T18:30:59.078Z,15.23
2022-10-03T18:34:02.444Z,15.18
2022-10-03T18:36:54.359Z,15.27
2022-10-03T18:39:45.531Z,16.17
2022-10-03T18:42:36.909Z,16.67
2022-10-03T18:45:38.594Z,17.17
2022-10-03T18:48:39.796Z,16.58
2022-10-03T18:51:54.715Z,18.17
2022-10-03T18:54:53.328Z,18.05
2022-10-03T18:57:52.096Z,18.98
2022-10-03T19:01:08.946Z,18.27
2022-10-03T19:04:07.153Z,18.77
2022-10-03T19:06:57.267Z,18.13
2022-10-03T19:10:08.807Z,17.88
2022-10-03T19:13:11.093Z,17.83
2022-10-03T19:16:16.484Z,17.92
2022-10-03T19:19:13.373Z,18.38
2022-10-03T19:22:08.798Z,19.10
2022-10-03T19:25:03.537Z,19.70
2022-10-03T19:28:38.160Z,19.75
2022-10-03T19:31:41.804Z,18.98
2022-10-03T19:34:41.179Z,19.35
2022-10-03T19:37:45.770Z,19.63
2022-10-03T19:40:57.375Z,18.40
2022-10-03T19:43:50.945Z,18.23
2022-10-03T19:46:49.736Z,18.42
2022-10-03T19:49:41.772Z,19.05
2022-10-03T19:52:32.801Z,17.77
2022-10-03T19:55:40.018Z,18.50
2022-10-03T19:58:30.301Z,16.48
2022-10-03T20:01:21.101Z,17.42
2022-10-03T20:04:37.135Z,18.02
2022-10-03T20:07:40.408Z,17.10
2022-10-03T20:10:49.243Z,17.67
2022-10-03T20:13:44.870Z,18.35
2022-10-03T20:16:41.509Z,17.58
2022-10-03T20:19:55.255Z,17.73
2022-10-03T20:22:45.415Z,17.02
2022-10-03T20:25:47.303Z,16.25
2022-10-03T20:28:45.328Z,17.08
2022-10-03T20:31:36.375Z,18.25
2022-10-03T20:34:27.223Z,21.60
2022-10-03T20:37:33.078Z,23.58
2022-10-03T20:41:01.534Z,25.65
2022-10-03T20:43:59.894Z,25.23
2022-10-03T20:46:51.125Z,26.20
2022-10-03T20:49:52.866Z,24.88
2022-10-03T20:52:42.422Z,24.23
2022-10-03T20:55:52.452Z,22.42
2022-10-03T20:59:00.073Z,23.83
2022-10-03T21:01:51.070Z,23.40
2022-10-03T21:04:52.695Z,21.70
2022-10-03T21:07:58.570Z,19.70
2022-10-03T21:11:01.445Z,20.52
2022-10-03T21:13:56.755Z,20.05
2022-10-03T21:16:51.846Z,19.25
2022-10-03T21:19:48.825Z,18.13
2022-10-03T21:22:39.159Z,19.67
2022-10-03T21:25:35.096Z,19.00
2022-10-03T21:28:36.441Z,20.10
2022-10-03T21:31:38.455Z,19.40
2022-10-03T21:34:52.097Z,19.23
2022-10-03T21:37:53.349Z,18.80
2022-10-03T21:41:00.821Z,19.98
2022-10-03T21:43:55.145Z,21.30
2022-10-03T21:47:19.718Z,27.88
2022-10-03T21:50:13.593Z,22.25
2022-10-03T21:53:12.364Z,20.75
2022-10-03T21:56:17.865Z,20.58
2022-10-03T21:59:41.407Z,22.23
2022-10-03T22:02:58.905Z,25.08
2022-10-03T22:06:13.743Z,22.80
2022-10-03T22:09:06.106Z,20.15
2022-10-03T22:11:59.965Z,20.90
2022-10-03T22:15:15.863Z,19.52
2022-10-03T22:18:18.250Z,20.25
2022-10-03T22:21:25.154Z,19.20
2022-10-03T22:24:37.857Z,19.58
2022-10-03T22:27:51.112Z,18.83
2022-10-03T22:30:50.881Z,18.77
2022-10-03T22:33:44.024Z,19.30
2022-10-03T22:36:38.597Z,19.08
2022-10-03T22:39:30.029Z,19.35
2022-10-03T22:42:20.403Z,18.85
2022-10-03T22:45:12.604Z,25.55
2022-10-03T22:48:06.039Z,24.52
2022-10-03T22:50:57.318Z,24.60
2022-10-03T22:54:00.226Z,23.27
2022-10-03T22:56:59.464Z,22.92
2022-10-03T22:59:52.524Z,25.40
2022-10-03T23:02:56.991Z,26.15
2022-10-03T23:06:04.807Z,26.27
2022-10-03T23:09:06.549Z,25.42
2022-10-03T23:11:56.994Z,25.30
2022-10-03T23:14:49.719Z,23.85
2022-10-03T23:17:53.290Z,22.13
2022-10-03T23:21:09.635Z,19.13
2022-10-03T23:24:36.006Z,18.83
2022-10-03T23:27:52.613Z,18.02
2022-10-03T23:30:54.880Z,19.02
2022-10-03T23:33:49.650Z,17.85
2022-10-03T23:37:22.148Z,18.38
2022-10-03T23:40:14.193Z,18.33
2022-10-03T23:43:38.937Z,15.95
2022-10-03T23:46:30.166Z,15.63
2022-10-03T23:49:21.299Z,15.27
2022-10-03T23:52:18.607Z,13.63
2022-10-03T23:55:10.001Z,14.50
2022-10-03T23:58:01.043Z,16.50
